createdAt,value
2018-12-21T00:00:40.139Z,100577.46
2018-12-21T00:01:41.912Z,100577.46
2018-12-21T00:02:44.575Z,100577.84
2018-12-21T00:03:46.597Z,100578.38
2018-12-21T00:04:48.491Z,100570.58
2018-12-21T00:05:50.251Z,100567.06
2018-12-21T00:06:52.016Z,100570.05
2018-12-21T00:07:53.799Z,100564.45
2018-12-21T00:08:55.570Z,100563.69
2018-12-21T00:09:57.323Z,100560.56
2018-12-21T00:10:59.120Z,100560.56
2018-12-21T00:12:01.097Z,100552.37
2018-12-21T00:13:03.069Z,100558.48
2018-12-21T00:14:04.821Z,100559.78
2018-12-21T00:15:06.584Z,100556.66
2018-12-21T00:16:08.358Z,100548.85
2018-12-21T00:17:10.139Z,100550.69
2018-12-21T00:18:12.323Z,100546.78
2018-12-21T00:19:14.086Z,100548.85
2018-12-21T00:20:15.861Z,100544.56
2018-12-21T00:21:21.756Z,100547.55
2018-12-21T00:22:21.421Z,100546.25
2018-12-21T00:23:23.236Z,100541.97
2018-12-21T00:24:25.008Z,100542.35
2018-12-21T00:25:26.778Z,100540.66
2018-12-21T00:26:28.555Z,100540.28
2018-12-21T00:27:30.316Z,100542.88
2018-12-21T00:28:32.136Z,100542.88
2018-12-21T00:29:33.905Z,100541.58
2018-12-21T00:30:34.989Z,100538.06
2018-12-21T00:31:42.264Z,100536.38
2018-12-21T00:32:49.277Z,100540.28
2018-12-21T00:33:56.454Z,100533.78
2018-12-21T00:35:03.620Z,100529.88
2018-12-21T00:36:10.809Z,100535.99
2018-12-21T00:37:18.180Z,100531.17
2018-12-21T00:38:25.542Z,100532.86
2018-12-21T00:39:32.818Z,100533.78
2018-12-21T00:40:40.005Z,100532.09
2018-12-21T00:41:41.114Z,100534.31
2018-12-21T00:42:48.050Z,100532.09
2018-12-21T00:43:57.118Z,100526.89
2018-12-21T00:45:03.155Z,100527.80
2018-12-21T00:46:08.689Z,100528.19
2018-12-21T00:47:12.621Z,100523.91
2018-12-21T00:48:14.384Z,100521.30
2018-12-21T00:49:19.296Z,100524.67
2018-12-21T00:50:21.129Z,100523.91
2018-12-21T00:51:30.014Z,100531.32
2018-12-21T00:52:26.676Z,100525.59
2018-12-21T00:53:28.425Z,100527.42
2018-12-21T00:54:30.252Z,100529.64
2018-12-21T00:55:32.110Z,100528.33
2018-12-21T00:56:33.859Z,100530.02
2018-12-21T00:57:35.642Z,100532.63
2018-12-21T00:58:37.412Z,100527.80
2018-12-21T00:59:39.157Z,100527.03
2018-12-21T01:00:40.938Z,100531.47
2018-12-21T01:01:42.716Z,100526.65
2018-12-21T01:02:44.489Z,100524.44
2018-12-21T01:03:46.255Z,100523.13
2018-12-21T01:04:47.997Z,100533.16
2018-12-21T01:05:49.781Z,100531.85
2018-12-21T01:06:51.546Z,100525.34
2018-12-21T01:07:53.300Z,100522.36
2018-12-21T01:08:55.067Z,100522.75
2018-12-21T01:09:57.009Z,100521.45
2018-12-21T01:10:58.823Z,100522.22
2018-12-21T01:12:00.969Z,100524.96
2018-12-21T01:13:02.732Z,100521.83
2018-12-21T01:14:04.489Z,100527.56
2018-12-21T01:15:06.263Z,100521.98
2018-12-21T01:16:08.732Z,100523.28
2018-12-21T01:17:10.527Z,100523.66
2018-12-21T01:18:12.697Z,100519.38
2018-12-21T01:19:14.452Z,100515.86
2018-12-21T01:20:16.197Z,100520.29
2018-12-21T01:21:17.966Z,100519.38
2018-12-21T01:22:19.707Z,100524.19
2018-12-21T01:23:21.538Z,100519.38
2018-12-21T01:24:23.289Z,100518.08
2018-12-21T01:25:25.039Z,100520.67
2018-12-21T01:26:26.814Z,100516.77
2018-12-21T01:27:28.565Z,100518.98
2018-12-21T01:28:30.327Z,100518.61
2018-12-21T01:29:32.107Z,100518.08
2018-12-21T01:30:34.005Z,100514.56
2018-12-21T01:31:35.757Z,100508.97
2018-12-21T01:32:37.512Z,100510.80
2018-12-21T01:33:39.248Z,100500.78
2018-12-21T01:34:41.002Z,100502.08
2018-12-21T01:35:43.064Z,100501.17
2018-12-21T01:36:44.857Z,100505.59
2018-12-21T01:37:46.620Z,100508.97
2018-12-21T01:38:48.368Z,100509.50
2018-12-21T01:39:50.109Z,100510.42
2018-12-21T01:40:51.864Z,100509.11
2018-12-21T01:41:53.660Z,100510.80
2018-12-21T01:42:55.398Z,100515.23
2018-12-21T01:43:57.150Z,100517.45
2018-12-21T01:44:58.903Z,100511.72
2018-12-21T01:46:01.854Z,100510.95
2018-12-21T01:47:03.628Z,100511.33
2018-12-21T01:48:05.389Z,100503.91
2018-12-21T01:49:07.139Z,100501.31
2018-12-21T01:50:08.903Z,100500.92
2018-12-21T01:51:10.731Z,100498.33
2018-12-21T01:52:12.511Z,100493.89
2018-12-21T01:53:14.248Z,100499.09
2018-12-21T01:54:16.091Z,100495.20
2018-12-21T01:55:17.848Z,100496.50
2018-12-21T01:56:19.634Z,100492.20
2018-12-21T01:57:21.424Z,100490.91
2018-12-21T01:58:24.407Z,100488.31
2018-12-21T01:59:26.146Z,100486.48
2018-12-21T02:00:27.987Z,100491.30
2018-12-21T02:01:29.856Z,100485.17
2018-12-21T02:02:31.637Z,100487.78
2018-12-21T02:03:33.386Z,100488.16
2018-12-21T02:04:35.153Z,100486.86
2018-12-21T02:05:36.898Z,100487.78
2018-12-21T02:06:38.653Z,100482.96
2018-12-21T02:07:40.428Z,100481.66
2018-12-21T02:08:42.186Z,100480.36
2018-12-21T02:09:43.930Z,100486.86
2018-12-21T02:10:45.676Z,100480.22
2018-12-21T02:11:47.436Z,100486.33
2018-12-21T02:12:49.220Z,100484.65
2018-12-21T02:13:50.999Z,100481.52
2018-12-21T02:14:52.768Z,100476.31
2018-12-21T02:15:54.518Z,100478.53
2018-12-21T02:16:56.265Z,100471.64
2018-12-21T02:17:58.104Z,100468.13
2018-12-21T02:18:59.899Z,100477.61
2018-12-21T02:20:01.659Z,100468.89
2018-12-21T02:21:03.418Z,100468.13
2018-12-21T02:22:05.172Z,100472.41
2018-12-21T02:23:06.945Z,100468.13
2018-12-21T02:24:08.699Z,100467.98
2018-12-21T02:25:10.452Z,100463.70
2018-12-21T02:26:12.278Z,100468.51
2018-12-21T02:27:14.112Z,100463.70
2018-12-21T02:28:15.895Z,100472.41
2018-12-21T02:29:17.639Z,100467.59
2018-12-21T02:30:19.386Z,100463.31
2018-12-21T02:31:21.129Z,100459.41
2018-12-21T02:32:22.877Z,100461.09
2018-12-21T02:33:24.645Z,100458.49
2018-12-21T02:34:26.397Z,100460.70
2018-12-21T02:35:28.141Z,100459.94
2018-12-21T02:36:29.892Z,100457.33
2018-12-21T02:37:31.675Z,100457.72
2018-12-21T02:38:33.457Z,100461.23
2018-12-21T02:39:35.195Z,100452.13
2018-12-21T02:40:36.941Z,100456.03
2018-12-21T02:41:38.704Z,100450.83
2018-12-21T02:42:40.440Z,100449.39
2018-12-21T02:43:42.215Z,100451.61
2018-12-21T02:44:43.969Z,100449.00
2018-12-21T02:45:45.736Z,100450.45
2018-12-21T02:46:47.598Z,100444.72
2018-12-21T02:47:49.389Z,100444.33
2018-12-21T02:48:51.167Z,100440.81
2018-12-21T02:49:52.937Z,100443.03
2018-12-21T02:50:54.709Z,100443.03
2018-12-21T02:52:05.339Z,100442.64
2018-12-21T02:53:00.247Z,100438.74
2018-12-21T02:54:02.026Z,100440.43
2018-12-21T02:55:03.780Z,100439.91
2018-12-21T02:56:05.532Z,100434.31
2018-12-21T02:57:07.309Z,100432.63
2018-12-21T02:58:09.059Z,100437.44
2018-12-21T02:59:10.824Z,100437.05
2018-12-21T03:00:12.575Z,100439.66
2018-12-21T03:01:14.314Z,100434.84
2018-12-21T03:02:16.054Z,100441.34
2018-12-21T03:03:17.804Z,100435.75
2018-12-21T03:04:20.910Z,100438.36
2018-12-21T03:05:22.659Z,100437.05
2018-12-21T03:06:24.409Z,100435.23
2018-12-21T03:07:26.155Z,100430.94
2018-12-21T03:08:27.901Z,100431.86
2018-12-21T03:09:29.692Z,100435.75
2018-12-21T03:10:31.498Z,100430.16
2018-12-21T03:11:33.362Z,100434.06
2018-12-21T03:12:35.121Z,100434.06
2018-12-21T03:13:36.860Z,100434.45
2018-12-21T03:14:40.417Z,100431.47
2018-12-21T03:15:42.173Z,100428.72
2018-12-21T03:16:43.927Z,100426.65
2018-12-21T03:17:46.886Z,100427.18
2018-12-21T03:18:49.053Z,100428.87
2018-12-21T03:19:51.063Z,100425.35
2018-12-21T03:20:52.806Z,100426.65
2018-12-21T03:21:54.562Z,100422.75
2018-12-21T03:22:56.323Z,100424.05
2018-12-21T03:23:58.088Z,100426.27
2018-12-21T03:24:59.869Z,100426.65
2018-12-21T03:26:01.705Z,100426.27
2018-12-21T03:27:03.524Z,100424.58
2018-12-21T03:28:05.290Z,100421.98
2018-12-21T03:29:07.033Z,100421.98
2018-12-21T03:30:08.816Z,100418.08
2018-12-21T03:31:11.694Z,100416.78
2018-12-21T03:32:13.469Z,100418.08
2018-12-21T03:33:15.338Z,100416.78
2018-12-21T03:34:17.181Z,100413.64
2018-12-21T03:35:18.982Z,100413.27
2018-12-21T03:36:20.841Z,100412.48
2018-12-21T03:37:22.596Z,100410.27
2018-12-21T03:38:24.357Z,100414.17
2018-12-21T03:39:26.202Z,100408.97
2018-12-21T03:40:27.993Z,100408.97
2018-12-21T03:41:29.747Z,100404.69
2018-12-21T03:42:31.505Z,100408.97
2018-12-21T03:43:33.276Z,100407.28
2018-12-21T03:44:35.091Z,100402.08
2018-12-21T03:45:36.878Z,100405.07
2018-12-21T03:46:38.633Z,100409.50
2018-12-21T03:47:40.390Z,100405.07
2018-12-21T03:48:42.152Z,100402.08
2018-12-21T03:49:43.967Z,100401.31
2018-12-21T03:50:45.831Z,100401.17
2018-12-21T03:51:47.591Z,100397.27
2018-12-21T03:52:49.368Z,100396.87
2018-12-21T03:53:51.117Z,100390.77
2018-12-21T03:54:52.873Z,100392.98
2018-12-21T03:55:54.690Z,100386.86
2018-12-21T03:56:56.490Z,100385.95
2018-12-21T03:57:58.248Z,100381.66
2018-12-21T03:59:00.008Z,100387.39
2018-12-21T04:00:01.756Z,100381.27
2018-12-21T04:01:03.539Z,100382.19
2018-12-21T04:02:05.303Z,100384.27
2018-12-21T04:03:08.559Z,100383.48
2018-12-21T04:04:10.355Z,100375.55
2018-12-21T04:05:12.092Z,100380.36
2018-12-21T04:06:13.894Z,100377.76
2018-12-21T04:07:15.653Z,100378.29
2018-12-21T04:08:17.421Z,100371.78
2018-12-21T04:09:19.198Z,100371.78
2018-12-21T04:10:21.026Z,100367.88
2018-12-21T04:11:22.803Z,100362.68
2018-12-21T04:12:24.555Z,100368.41
2018-12-21T04:13:26.329Z,100359.69
2018-12-21T04:14:28.087Z,100355.65
2018-12-21T04:15:29.964Z,100364.51
2018-12-21T04:16:31.753Z,100360.61
2018-12-21T04:17:33.519Z,100360.08
2018-12-21T04:18:35.277Z,100358.00
2018-12-21T04:19:37.026Z,100361.38
2018-12-21T04:20:38.796Z,100358.00
2018-12-21T04:21:40.622Z,100364.89
2018-12-21T04:22:42.384Z,100362.30
2018-12-21T04:23:44.140Z,100362.68
2018-12-21T04:24:45.910Z,100361.91
2018-12-21T04:25:48.169Z,100358.39
2018-12-21T04:26:49.947Z,100357.09
2018-12-21T04:27:51.724Z,100356.70
2018-12-21T04:28:53.509Z,100356.70
2018-12-21T04:29:56.947Z,100354.48
2018-12-21T04:30:58.713Z,100350.97
2018-12-21T04:32:00.496Z,100353.19
2018-12-21T04:33:02.259Z,100351.50
2018-12-21T04:34:04.027Z,100349.81
2018-12-21T04:35:05.788Z,100349.81
2018-12-21T04:36:07.548Z,100345.39
2018-12-21T04:38:17.556Z,100338.88
2018-12-21T04:39:19.315Z,100340.95
2018-12-21T04:40:21.071Z,100339.27
2018-12-21T04:41:22.872Z,100340.71
2018-12-21T04:42:24.691Z,100337.97
2018-12-21T04:43:26.453Z,100342.02
2018-12-21T04:44:28.220Z,100339.41
2018-12-21T04:45:29.990Z,100333.30
2018-12-21T04:46:31.761Z,100333.30
2018-12-21T04:47:33.565Z,100329.78
2018-12-21T04:48:35.578Z,100332.37
2018-12-21T04:49:37.432Z,100331.99
2018-12-21T04:50:39.302Z,100332.37
2018-12-21T04:51:41.196Z,100324.58
2018-12-21T04:52:43.610Z,100329.78
2018-12-21T04:53:45.580Z,100325.48
2018-12-21T04:54:47.394Z,100330.30
2018-12-21T04:55:49.161Z,100324.72
2018-12-21T04:56:50.913Z,100325.10
2018-12-21T04:57:52.720Z,100326.80
2018-12-21T04:58:54.464Z,100319.77
2018-12-21T04:59:56.230Z,100322.36
2018-12-21T05:00:58.030Z,100328.09
2018-12-21T05:01:59.799Z,100330.69
2018-12-21T05:03:01.585Z,100327.18
2018-12-21T05:04:03.429Z,100326.27
2018-12-21T05:05:05.193Z,100331.99
2018-12-21T05:06:06.945Z,100324.19
2018-12-21T05:07:12.625Z,100324.58
2018-12-21T05:08:12.536Z,100324.58
2018-12-21T05:09:14.306Z,100324.19
2018-12-21T05:10:16.697Z,100319.38
2018-12-21T05:11:18.474Z,100315.47
2018-12-21T05:12:20.228Z,100317.30
2018-12-21T05:13:22.001Z,100311.19
2018-12-21T05:14:23.746Z,100309.88
2018-12-21T05:15:25.631Z,100316.39
2018-12-21T05:16:27.383Z,100307.28
2018-12-21T05:17:29.129Z,100308.58
2018-12-21T05:18:30.937Z,100305.45
2018-12-21T05:19:32.744Z,100303.38
2018-12-21T05:20:34.536Z,100305.98
2018-12-21T05:21:36.277Z,100299.09
2018-12-21T05:22:38.038Z,100303.00
2018-12-21T05:23:39.821Z,100300.78
2018-12-21T05:24:41.579Z,100298.18
2018-12-21T05:25:43.339Z,100293.36
2018-12-21T05:26:45.131Z,100295.19
2018-12-21T05:27:46.885Z,100287.77
2018-12-21T05:28:48.677Z,100282.19
2018-12-21T05:29:50.426Z,100289.98
2018-12-21T05:30:52.204Z,100286.47
2018-12-21T05:31:54.013Z,100282.96
2018-12-21T05:32:55.774Z,100289.08
2018-12-21T05:33:57.556Z,100287.77
2018-12-21T05:34:59.323Z,100279.97
2018-12-21T05:36:01.065Z,100278.28
2018-12-21T05:37:02.838Z,100268.66
2018-12-21T05:38:04.596Z,100266.97
2018-12-21T05:39:06.352Z,100273.47
2018-12-21T05:40:08.119Z,100268.27
2018-12-21T05:41:09.872Z,100272.55
2018-12-21T05:42:11.636Z,100269.18
2018-12-21T05:43:13.509Z,100268.27
2018-12-21T05:44:15.873Z,100266.58
2018-12-21T05:45:17.646Z,100267.87
2018-12-21T05:46:19.407Z,100270.48
2018-12-21T05:47:21.168Z,100267.87
2018-12-21T05:48:22.964Z,100263.45
2018-12-21T05:49:24.798Z,100261.77
2018-12-21T05:50:26.574Z,100257.47
2018-12-21T05:51:28.331Z,100257.47
2018-12-21T05:52:30.309Z,100266.05
2018-12-21T05:53:32.073Z,100265.28
2018-12-21T05:54:33.881Z,100263.06
2018-12-21T05:55:35.636Z,100259.16
2018-12-21T05:56:37.470Z,100258.78
2018-12-21T05:57:39.321Z,100251.75
2018-12-21T05:58:41.086Z,100253.44
2018-12-21T05:59:42.866Z,100250.45
2018-12-21T06:00:44.624Z,100253.44
2018-12-21T06:01:46.382Z,100245.63
2018-12-21T06:02:48.145Z,100238.60
2018-12-21T06:03:49.902Z,100237.69
2018-12-21T06:04:51.696Z,100234.70
2018-12-21T06:05:53.607Z,100233.79
2018-12-21T06:06:55.368Z,100232.88
2018-12-21T06:07:57.134Z,100229.75
2018-12-21T06:08:58.892Z,100226.77
2018-12-21T06:10:00.679Z,100222.34
2018-12-21T06:11:04.188Z,100221.03
2018-12-21T06:12:05.936Z,100212.19
2018-12-21T06:13:08.199Z,100218.82
2018-12-21T06:14:09.988Z,100214.92
2018-12-21T06:15:11.777Z,100217.91
2018-12-21T06:16:13.540Z,100216.61
2018-12-21T06:17:15.292Z,100217.91
2018-12-21T06:18:17.043Z,100215.70
2018-12-21T06:19:20.118Z,100214.39
2018-12-21T06:20:21.932Z,100218.69
2018-12-21T06:21:23.703Z,100217.25
2018-12-21T06:22:25.471Z,100213.87
2018-12-21T06:23:27.222Z,100211.27
2018-12-21T06:24:28.980Z,100211.27
2018-12-21T06:25:30.763Z,100208.01
2018-12-21T06:26:32.516Z,100204.11
2018-12-21T06:27:34.271Z,100205.02
2018-12-21T06:28:36.025Z,100199.68
2018-12-21T06:29:37.783Z,100201.89
2018-12-21T06:30:39.569Z,100191.31
2018-12-21T06:31:41.341Z,100197.82
2018-12-21T06:32:43.111Z,100193.39
2018-12-21T06:33:44.883Z,100190.41
2018-12-21T06:34:46.651Z,100192.62
2018-12-21T06:35:48.426Z,100186.75
2018-12-21T06:36:50.170Z,100192.87
2018-12-21T06:37:51.931Z,100188.05
2018-12-21T06:38:53.710Z,100184.93
2018-12-21T06:39:55.491Z,100183.24
2018-12-21T06:40:57.288Z,100181.03
2018-12-21T06:41:59.057Z,100186.62
2018-12-21T06:43:02.314Z,100182.33
2018-12-21T06:44:04.083Z,100183.36
2018-12-21T06:45:05.840Z,100184.13
2018-12-21T06:46:14.117Z,100185.43
2018-12-21T06:47:11.496Z,100188.94
2018-12-21T06:48:13.254Z,100188.42
2018-12-21T06:49:14.999Z,100192.70
2018-12-21T06:50:18.280Z,100187.12
2018-12-21T06:51:20.319Z,100185.68
2018-12-21T06:52:22.329Z,100187.89
2018-12-21T06:53:24.107Z,100189.19
2018-12-21T06:54:25.881Z,100183.99
2018-12-21T06:55:27.655Z,100186.98
2018-12-21T06:56:29.675Z,100184.24
2018-12-21T06:57:31.463Z,100183.33
2018-12-21T06:58:33.236Z,100178.52
2018-12-21T06:59:35.095Z,100174.23
2018-12-21T07:00:36.923Z,100175.36
2018-12-21T07:01:39.500Z,100175.36
2018-12-21T07:02:41.238Z,100171.45
2018-12-21T07:03:42.995Z,100176.13
2018-12-21T07:04:44.742Z,100172.23
2018-12-21T07:05:46.517Z,100174.45
2018-12-21T07:06:48.292Z,100168.16
2018-12-21T07:07:50.057Z,100173.92
2018-12-21T07:08:51.837Z,100169.84
2018-12-21T07:09:53.601Z,100170.41
2018-12-21T07:10:55.372Z,100171.01
2018-12-21T07:11:57.165Z,100173.75
2018-12-21T07:13:00.245Z,100165.81
2018-12-21T07:14:02.164Z,100162.82
2018-12-21T07:15:04.014Z,100157.88
2018-12-21T07:16:05.791Z,100158.27
2018-12-21T07:17:07.574Z,100155.66
2018-12-21T07:18:09.870Z,100150.08
2018-12-21T07:19:11.646Z,100162.16
2018-12-21T07:20:13.409Z,100156.96
2018-12-21T07:21:15.185Z,100154.75
2018-12-21T07:22:16.961Z,100153.31
2018-12-21T07:23:26.885Z,100148.11
2018-12-21T07:24:22.503Z,100146.81
2018-12-21T07:25:24.251Z,100146.29
2018-12-21T07:26:26.024Z,100137.58
2018-12-21T07:27:27.787Z,100145.52
2018-12-21T07:28:29.561Z,100139.41
2018-12-21T07:29:31.326Z,100140.70
2018-12-21T07:30:33.075Z,100142.39
2018-12-21T07:31:34.851Z,100143.30
2018-12-21T07:32:36.631Z,100143.30
2018-12-21T07:33:38.391Z,100145.90
2018-12-21T07:34:40.180Z,100145.37
2018-12-21T07:35:41.961Z,100145.52
2018-12-21T07:36:43.721Z,100140.70
2018-12-21T07:37:46.654Z,100131.47
2018-12-21T07:38:48.499Z,100138.87
2018-12-21T07:39:50.275Z,100135.75
2018-12-21T07:40:52.069Z,100130.16
2018-12-21T07:41:53.830Z,100134.06
2018-12-21T07:42:55.639Z,100130.55
2018-12-21T07:43:57.390Z,100132.77
2018-12-21T07:44:59.149Z,100127.95
2018-12-21T07:46:02.322Z,100126.27
2018-12-21T07:47:04.091Z,100121.45
2018-12-21T07:48:05.878Z,100125.70
2018-12-21T07:49:07.618Z,100124.05
2018-12-21T07:50:09.374Z,100113.48
2018-12-21T07:51:11.133Z,100118.85
2018-12-21T07:52:12.894Z,100111.58
2018-12-21T07:53:14.685Z,100112.36
2018-12-21T07:54:16.608Z,100111.58
2018-12-21T07:55:18.380Z,100110.67
2018-12-21T07:56:20.140Z,100108.98
2018-12-21T07:57:22.280Z,100109.37
2018-12-21T07:58:24.065Z,100103.26
2018-12-21T07:59:25.812Z,100105.47
2018-12-21T08:00:27.594Z,100102.87
2018-12-21T08:01:29.339Z,100099.49
2018-12-21T08:02:31.087Z,100101.95
2018-12-21T08:03:32.888Z,100100.80
2018-12-21T08:04:34.698Z,100100.27
2018-12-21T08:05:36.499Z,100100.41
2018-12-21T08:06:38.255Z,100096.38
2018-12-21T08:07:40.022Z,100093.77
2018-12-21T08:08:41.804Z,100093.00
2018-12-21T08:09:43.557Z,100093.77
2018-12-21T08:10:45.323Z,100086.88
2018-12-21T08:11:47.063Z,100082.98
2018-12-21T08:12:48.863Z,100079.09
2018-12-21T08:13:50.642Z,100087.02
2018-12-21T08:14:52.430Z,100079.61
2018-12-21T08:15:54.190Z,100073.89
2018-12-21T08:16:57.062Z,100074.80
2018-12-21T08:17:58.824Z,100071.67
2018-12-21T08:19:00.601Z,100075.19
2018-12-21T08:20:02.366Z,100076.88
2018-12-21T08:21:04.143Z,100076.09
2018-12-21T08:22:05.921Z,100075.71
2018-12-21T08:23:07.683Z,100072.59
2018-12-21T08:24:09.444Z,100064.79
2018-12-21T08:25:11.207Z,100066.09
2018-12-21T08:26:12.978Z,100069.08
2018-12-21T08:27:14.753Z,100064.27
2018-12-21T08:28:16.511Z,100066.87
2018-12-21T08:29:18.313Z,100059.42
2018-12-21T08:30:20.194Z,100064.62
2018-12-21T08:31:22.081Z,100060.72
2018-12-21T08:32:23.851Z,100062.58
2018-12-21T08:33:25.624Z,100061.66
2018-12-21T08:34:27.402Z,100058.12
2018-12-21T08:35:29.151Z,100060.37
2018-12-21T08:36:30.902Z,100053.17
2018-12-21T08:37:32.665Z,100051.09
2018-12-21T08:38:34.430Z,100052.40
2018-12-21T08:39:36.195Z,100051.09
2018-12-21T08:40:38.573Z,100054.09
2018-12-21T08:41:40.352Z,100053.31
2018-12-21T08:42:42.103Z,100050.19
2018-12-21T08:44:52.222Z,100043.69
2018-12-21T08:45:53.971Z,100046.28
2018-12-21T08:46:55.739Z,100041.48
2018-12-21T08:47:57.502Z,100040.17
2018-12-21T08:48:59.272Z,100041.09
2018-12-21T08:50:01.063Z,100037.05
2018-12-21T08:51:02.833Z,100032.77
2018-12-21T08:52:04.621Z,100026.66
2018-12-21T08:53:06.387Z,100032.77
2018-12-21T08:54:08.160Z,100025.75
2018-12-21T08:55:11.863Z,100027.05
2018-12-21T08:56:13.707Z,100028.34
2018-12-21T08:57:15.487Z,100019.64
2018-12-21T08:58:17.240Z,100024.06
2018-12-21T08:59:18.982Z,100021.46
2018-12-21T09:00:20.778Z,100017.42
2018-12-21T09:01:22.542Z,100020.94
2018-12-21T09:02:24.295Z,100017.03
2018-12-21T09:03:26.043Z,100020.41
2018-12-21T09:04:32.243Z,100018.20
2018-12-21T09:05:31.617Z,100017.81
2018-12-21T09:06:33.380Z,100020.41
2018-12-21T09:07:37.164Z,100022.48
2018-12-21T09:08:38.928Z,100018.73
2018-12-21T09:09:40.699Z,100018.20
2018-12-21T09:10:42.467Z,100017.81
2018-12-21T09:11:44.724Z,100014.30
2018-12-21T09:12:51.139Z,100009.87
2018-12-21T09:13:52.906Z,100011.19
2018-12-21T09:14:54.684Z,100013.39
2018-12-21T09:15:56.491Z,100012.09
2018-12-21T09:16:58.261Z,100008.58
2018-12-21T09:18:00.051Z,100009.87
2018-12-21T09:19:01.823Z,100009.49
2018-12-21T09:20:03.587Z,100008.20
2018-12-21T09:21:05.379Z,100002.61
2018-12-21T09:22:07.150Z,99999.48
2018-12-21T09:23:08.910Z,100004.30
2018-12-21T09:24:10.713Z,100000.39
2018-12-21T09:25:12.469Z,99998.19
2018-12-21T09:26:14.253Z,100002.61
2018-12-21T09:27:16.019Z,100000.01
2018-12-21T09:28:17.783Z,99996.89
2018-12-21T09:29:19.538Z,99994.28
2018-12-21T09:30:21.405Z,99995.98
2018-12-21T09:31:23.323Z,99991.69
2018-12-21T09:32:25.204Z,99985.58
2018-12-21T09:33:27.023Z,99983.37
2018-12-21T09:34:28.785Z,99980.38
2018-12-21T09:35:30.548Z,99976.48
2018-12-21T09:36:32.331Z,99976.48
2018-12-21T09:37:34.096Z,99974.41
2018-12-21T09:38:35.858Z,99970.89
2018-12-21T09:39:37.614Z,99970.12
2018-12-21T09:40:39.395Z,99971.28
2018-12-21T09:41:41.178Z,99976.09
2018-12-21T09:42:42.934Z,99971.80
2018-12-21T09:43:44.692Z,99968.69
2018-12-21T09:44:52.476Z,99965.17
2018-12-21T09:45:51.741Z,99967.00
2018-12-21T09:46:53.525Z,99969.98
2018-12-21T09:47:55.273Z,99969.98
2018-12-21T09:48:57.034Z,99967.00
2018-12-21T09:49:58.782Z,99960.50
2018-12-21T09:51:01.133Z,99967.00
2018-12-21T09:52:02.990Z,99956.59
2018-12-21T09:53:04.747Z,99962.19
2018-12-21T09:54:10.029Z,99954.78
2018-12-21T09:55:10.288Z,99954.52
2018-12-21T09:56:12.039Z,99955.44
2018-12-21T09:57:13.823Z,99951.02
2018-12-21T09:58:15.633Z,99952.31
2018-12-21T09:59:17.648Z,99950.10
2018-12-21T10:00:19.455Z,99944.38
2018-12-21T10:01:21.232Z,99947.50
2018-12-21T10:02:23.017Z,99946.20
2018-12-21T10:03:24.775Z,99945.81
2018-12-21T10:04:26.544Z,99941.53
2018-12-21T10:05:28.305Z,99939.70
2018-12-21T10:06:30.055Z,99938.93
2018-12-21T10:07:31.873Z,99936.72
2018-12-21T10:08:33.635Z,99937.23
2018-12-21T10:09:35.385Z,99934.13
2018-12-21T10:10:37.134Z,99922.95
2018-12-21T10:11:38.898Z,99929.31
2018-12-21T10:12:41.194Z,99918.91
2018-12-21T10:13:42.963Z,99922.42
2018-12-21T10:14:44.738Z,99915.92
2018-12-21T10:15:46.503Z,99911.12
2018-12-21T10:16:48.266Z,99908.13
2018-12-21T10:17:50.075Z,99909.04
2018-12-21T10:18:51.892Z,99901.63
2018-12-21T10:19:53.640Z,99899.42
2018-12-21T10:20:55.391Z,99897.73
2018-12-21T10:21:57.198Z,99896.05
2018-12-21T10:22:58.978Z,99893.97
2018-12-21T10:24:00.734Z,99888.25
2018-12-21T10:25:02.508Z,99883.44
2018-12-21T10:26:04.268Z,99882.14
2018-12-21T10:27:06.036Z,99883.05
2018-12-21T10:28:08.870Z,99880.97
2018-12-21T10:29:10.618Z,99876.55
2018-12-21T10:30:12.384Z,99871.35
2018-12-21T10:31:14.151Z,99871.35
2018-12-21T10:32:15.934Z,99868.36
2018-12-21T10:33:17.741Z,99862.77
2018-12-21T10:34:19.531Z,99866.67
2018-12-21T10:35:21.287Z,99858.75
2018-12-21T10:36:23.071Z,99864.98
2018-12-21T10:37:24.825Z,99860.17
2018-12-21T10:38:26.634Z,99856.28
2018-12-21T10:39:28.387Z,99852.38
2018-12-21T10:40:30.155Z,99856.28
2018-12-21T10:41:31.914Z,99849.65
2018-12-21T10:42:33.678Z,99851.86
2018-12-21T10:43:35.471Z,99846.66
2018-12-21T10:44:37.234Z,99846.27
2018-12-21T10:45:41.710Z,99843.80
2018-12-21T10:46:42.819Z,99838.86
2018-12-21T10:47:44.613Z,99833.66
2018-12-21T10:48:46.605Z,99831.98
2018-12-21T10:49:48.366Z,99831.06
2018-12-21T10:50:51.134Z,99827.17
2018-12-21T10:51:52.901Z,99833.27
2018-12-21T10:52:54.661Z,99828.08
2018-12-21T10:53:56.416Z,99829.38
2018-12-21T10:54:58.177Z,99823.66
2018-12-21T10:55:59.922Z,99824.18
2018-12-21T10:57:01.713Z,99817.68
2018-12-21T10:58:03.480Z,99819.77
2018-12-21T10:59:20.905Z,99816.77
2018-12-21T11:00:16.458Z,99820.80
2018-12-21T11:01:18.225Z,99809.88
2018-12-21T11:02:19.964Z,99800.40
2018-12-21T11:03:21.825Z,99803.00
2018-12-21T11:04:23.601Z,99795.59
2018-12-21T11:05:25.349Z,99792.99
2018-12-21T11:06:27.115Z,99793.51
2018-12-21T11:07:28.855Z,99794.03
2018-12-21T11:08:30.637Z,99782.72
2018-12-21T11:09:32.458Z,99787.53
2018-12-21T11:10:34.233Z,99782.72
2018-12-21T11:11:36.040Z,99786.63
2018-12-21T11:12:37.817Z,99780.52
2018-12-21T11:13:39.653Z,99774.80
2018-12-21T11:14:41.433Z,99775.31
2018-12-21T11:15:43.193Z,99775.83
2018-12-21T11:16:44.953Z,99770.90
2018-12-21T11:17:46.701Z,99769.60
2018-12-21T11:18:48.483Z,99771.81
2018-12-21T11:19:50.265Z,99765.31
2018-12-21T11:20:52.028Z,99763.10
2018-12-21T11:21:53.796Z,99760.50
2018-12-21T11:22:55.559Z,99760.50
2018-12-21T11:23:57.344Z,99754.39
2018-12-21T11:24:59.611Z,99754.00
2018-12-21T11:26:01.375Z,99751.02
2018-12-21T11:27:03.145Z,99747.90
2018-12-21T11:28:04.897Z,99747.51
2018-12-21T11:29:06.649Z,99745.69
2018-12-21T11:30:08.433Z,99742.70
2018-12-21T11:31:10.191Z,99739.19
2018-12-21T11:32:11.968Z,99738.02
2018-12-21T11:33:13.834Z,99734.13
2018-12-21T11:34:15.599Z,99728.92
2018-12-21T11:35:19.346Z,99730.22
2018-12-21T11:36:22.878Z,99731.52
2018-12-21T11:37:24.654Z,99729.31
2018-12-21T11:38:27.722Z,99719.31
2018-12-21T11:39:29.502Z,99716.32
2018-12-21T11:40:31.310Z,99723.20
2018-12-21T11:41:33.050Z,99710.73
2018-12-21T11:42:34.814Z,99714.23
2018-12-21T11:43:36.577Z,99710.60
2018-12-21T11:44:40.282Z,99704.63
2018-12-21T11:45:42.080Z,99710.21
2018-12-21T11:46:43.865Z,99707.22
2018-12-21T11:47:45.614Z,99695.01
2018-12-21T11:48:47.365Z,99695.53
2018-12-21T11:49:49.117Z,99691.62
2018-12-21T11:50:50.901Z,99689.42
2018-12-21T11:51:52.656Z,99689.03
2018-12-21T11:52:54.410Z,99686.82
2018-12-21T11:53:56.190Z,99681.63